createdAt,value
2022-08-09T00:00:00.000Z,71.46
2022-08-09T00:15:00.000Z,74.37
2022-08-09T00:30:00.000Z,75.53
2022-08-09T00:45:00.000Z,75.42
2022-08-09T01:00:00.000Z,75.73
2022-08-09T01:15:00.000Z,76.55
2022-08-09T01:30:00.000Z,76.52
2022-08-09T01:45:00.000Z,78.09
2022-08-09T02:00:00.000Z,77.7
2022-08-09T02:15:00.000Z,77.65
2022-08-09T02:30:00.000Z,77.45
2022-08-09T02:45:00.000Z,78.64
2022-08-09T03:00:00.000Z,80.07
2022-08-09T03:15:00.000Z,81.96
2022-08-09T03:30:00.000Z,83.53
2022-08-09T03:45:00.000Z,82.42
2022-08-09T04:00:00.000Z,80.99
2022-08-09T04:15:00.000Z,79.54
2022-08-09T04:30:00.000Z,78.01
2022-08-09T04:45:00.000Z,76.73
2022-08-09T05:00:00.000Z,76.24
2022-08-09T05:15:00.000Z,73.3
2022-08-09T05:30:00.000Z,70.79
2022-08-09T05:45:00.000Z,70.38
2022-08-09T06:00:00.000Z,69.69
2022-08-09T06:15:00.000Z,67.91
2022-08-09T06:30:00.000Z,66.17
2022-08-09T06:45:00.000Z,63.26
2022-08-09T07:00:00.000Z,53.49
2022-08-09T07:15:00.000Z,45.23
2022-08-09T07:30:00.000Z,41.81
2022-08-09T07:45:00.000Z,41.07
2022-08-09T08:00:00.000Z,40.08
2022-08-09T08:15:00.000Z,39.27
2022-08-09T08:30:00.000Z,39.08
2022-08-09T08:45:00.000Z,37.36
2022-08-09T09:00:00.000Z,35.94
2022-08-09T09:15:00.000Z,35.13
2022-08-09T09:30:00.000Z,33.99
2022-08-09T09:45:00.000Z,34.56
2022-08-09T10:00:00.000Z,34.36
2022-08-09T10:15:00.000Z,34.64
2022-08-09T10:30:00.000Z,35
2022-08-09T10:45:00.000Z,35.88
2022-08-09T11:00:00.000Z,36.43
2022-08-09T11:15:00.000Z,36.58
2022-08-09T11:30:00.000Z,37.54
2022-08-09T11:45:00.000Z,37.27
2022-08-09T12:00:00.000Z,36.95
2022-08-09T12:15:00.000Z,38.23
2022-08-09T12:30:00.000Z,38.58
2022-08-09T12:45:00.000Z,38.26
2022-08-09T13:00:00.000Z,38.9
2022-08-09T13:15:00.000Z,38.3
2022-08-09T13:30:00.000Z,37.48
2022-08-09T13:45:00.000Z,37.34
2022-08-09T14:00:00.000Z,37.71
2022-08-09T14:15:00.000Z,37.83
2022-08-09T14:30:00.000Z,37.74
2022-08-09T14:45:00.000Z,37.34
2022-08-09T15:00:00.000Z,36.39
2022-08-09T15:15:00.000Z,36.26
2022-08-09T15:30:00.000Z,36.87
2022-08-09T15:45:00.000Z,37.16
2022-08-09T16:00:00.000Z,37.95
2022-08-09T16:15:00.000Z,38.28
2022-08-09T16:30:00.000Z,38.35
2022-08-09T16:45:00.000Z,38.81
2022-08-09T17:00:00.000Z,39.59
2022-08-09T17:15:00.000Z,39
2022-08-09T17:30:00.000Z,40.11
2022-08-09T17:45:00.000Z,41.45
2022-08-09T18:15:00.000Z,44.19
2022-08-09T18:15:00.000Z,44.62
2022-08-09T18:30:00.000Z,46
2022-08-09T18:45:00.000Z,47.08
2022-08-09T19:00:00.000Z,47.79
2022-08-09T19:15:00.000Z,49.27
2022-08-09T19:30:00.000Z,50.64
2022-08-09T19:45:00.000Z,52.44
2022-08-09T20:00:00.000Z,52.78
2022-08-09T20:15:00.000Z,53.87
2022-08-09T20:30:00.000Z,54.14
2022-08-09T20:45:00.000Z,55.87
2022-08-09T21:00:00.000Z,58.27
2022-08-09T21:15:00.000Z,58.04
2022-08-09T21:30:00.000Z,58.77
2022-08-09T21:45:00.000Z,60.45
2022-08-09T22:00:00.000Z,61.68
2022-08-09T22:15:00.000Z,61.33
2022-08-09T22:30:00.000Z,61.25
2022-08-09T22:45:00.000Z,63.33
2022-08-09T23:00:00.000Z,64.19
2022-08-09T23:15:00.000Z,63.86
2022-08-09T23:30:00.000Z,64.44
2022-08-09T23:45:00.000Z,65.48
